Time;durP1;ratioP1;P1;durP2;ratioP2;P2;SDS_P1;SDS_P2;PMS_P1;PMS_P2;Temp;Humidity;BMP_temperature;BMP_pressure;BME280_temperature;BME280_humidity;BME280_pressure;Samples;Min_cycle;Max_cycle;Signal;HPM_P1;HPM_P2
2023/06/05 00:00:52;;;;;;;5.80;1.05;;;17.00;99.90;;;;;;4955013;28;20233;-78
2023/06/05 00:03:26;;;;;;;4.70;0.70;;;17.00;99.90;;;;;;4955887;28;20221;-77
2023/06/05 00:05:58;;;;;;;3.95;0.70;;;17.10;99.90;;;;;;4955297;28;20192;-78
2023/06/05 00:08:29;;;;;;;3.55;0.77;;;17.10;99.90;;;;;;4955319;28;20224;-78
2023/06/05 00:11:00;;;;;;;3.65;0.50;;;17.10;99.90;;;;;;4957488;28;20200;-78
2023/06/05 00:13:31;;;;;;;1.65;0.50;;;17.10;99.90;;;;;;4959273;28;20193;-78
2023/06/05 00:16:03;;;;;;;3.50;0.63;;;17.20;99.90;;;;;;4958896;28;20659;-78
2023/06/05 00:18:36;;;;;;;3.40;0.80;;;17.30;99.90;;;;;;4958687;28;20221;-78
2023/06/05 00:21:07;;;;;;;4.15;0.88;;;17.30;99.90;;;;;;4958721;28;20205;-78
2023/06/05 00:23:38;;;;;;;3.20;0.70;;;17.30;99.90;;;;;;4958973;28;20561;-78
2023/06/05 00:26:09;;;;;;;3.60;0.75;;;17.30;99.90;;;;;;4958659;28;20595;-78
2023/06/05 00:28:40;;;;;;;4.95;0.88;;;17.40;99.90;;;;;;4958733;28;20197;-78
2023/06/05 00:31:12;;;;;;;1.83;0.68;;;17.40;99.90;;;;;;4958425;28;20244;-78
2023/06/05 00:33:45;;;;;;;1.77;0.60;;;17.50;99.90;;;;;;4958714;28;20247;-78
2023/06/05 00:36:17;;;;;;;5.18;0.70;;;17.50;99.90;;;;;;4958446;28;20567;-77
2023/06/05 00:38:49;;;;;;;2.65;0.60;;;17.60;99.90;;;;;;4958503;28;20225;-78
2023/06/05 00:41:20;;;;;;;2.60;0.70;;;17.70;99.90;;;;;;4958808;28;20641;-78
2023/06/05 00:43:51;;;;;;;3.70;0.70;;;17.80;99.90;;;;;;4958434;28;20197;-77
2023/06/05 00:46:22;;;;;;;3.17;0.63;;;17.80;99.90;;;;;;4958192;28;20197;-77
2023/06/05 00:48:55;;;;;;;3.63;0.55;;;17.80;99.90;;;;;;4958418;28;20196;-77
2023/06/05 00:51:26;;;;;;;1.58;0.50;;;17.90;99.90;;;;;;4958222;28;20560;-78
2023/06/05 00:53:58;;;;;;;3.72;0.70;;;17.90;99.90;;;;;;4958130;28;20259;-77
2023/06/05 00:56:29;;;;;;;3.00;0.50;;;17.90;99.90;;;;;;4958263;28;20196;-77
2023/06/05 00:59:00;;;;;;;4.72;0.73;;;17.90;99.90;;;;;;4957762;28;20564;-78
2023/06/05 01:01:32;;;;;;;2.22;0.60;;;18.00;99.90;;;;;;4957718;28;20253;-77
2023/06/05 01:04:05;;;;;;;2.92;0.60;;;18.00;99.90;;;;;;4958144;28;20197;-77
2023/06/05 01:06:38;;;;;;;1.27;0.40;;;18.10;99.90;;;;;;4958395;28;20197;-77
2023/06/05 01:09:10;;;;;;;4.90;0.77;;;18.20;99.90;;;;;;4958066;28;20201;-78
2023/06/05 01:11:49;;;;;;;2.00;0.57;;;18.20;99.90;;;;;;4957877;28;20256;-78
2023/06/05 01:14:27;;;;;;;1.88;0.55;;;18.30;99.90;;;;;;4957751;29;20204;-77
2023/06/05 01:17:00;;;;;;;1.58;0.50;;;18.30;99.90;;;;;;4957771;28;20551;-78
2023/06/05 01:19:34;;;;;;;2.30;0.60;;;18.30;99.90;;;;;;4957511;28;20272;-77
2023/06/05 01:22:05;;;;;;;4.60;0.60;;;18.30;99.90;;;;;;4956316;28;20284;-77
2023/06/05 01:24:40;;;;;;;3.28;0.70;;;18.30;99.90;;;;;;4957725;28;20195;-77
2023/06/05 01:27:15;;;;;;;5.50;0.65;;;18.20;99.90;;;;;;4957543;28;20203;-77
2023/06/05 01:29:58;;;;;;;2.53;0.60;;;18.10;99.90;;;;;;4957346;28;20196;-77
2023/06/05 01:32:39;;;;;;;2.30;0.60;;;18.10;99.90;;;;;;4957546;28;20641;-77
2023/06/05 01:35:11;;;;;;;2.92;0.57;;;18.10;99.90;;;;;;4957758;28;20201;-77
2023/06/05 01:37:48;;;;;;;5.22;0.88;;;18.10;99.90;;;;;;4957240;28;20208;-77
2023/06/05 01:40:22;;;;;;;2.83;0.50;;;18.00;99.90;;;;;;4957285;28;20199;-78
2023/06/05 01:42:56;;;;;;;2.08;0.50;;;18.00;99.90;;;;;;4957107;28;20232;-77
2023/06/05 01:45:27;;;;;;;4.80;0.47;;;17.90;99.90;;;;;;4957208;28;20193;-77
2023/06/05 01:47:59;;;;;;;2.05;0.30;;;17.90;99.90;;;;;;4957229;28;20193;-77
2023/06/05 01:50:30;;;;;;;3.42;0.50;;;18.00;99.90;;;;;;4957099;28;20204;-78
2023/06/05 01:53:02;;;;;;;2.92;0.70;;;17.90;99.90;;;;;;4957061;28;20193;-77
2023/06/05 01:55:39;;;;;;;2.63;0.50;;;18.00;99.90;;;;;;4957017;28;20195;-77
2023/06/05 01:58:10;;;;;;;2.38;0.70;;;18.10;99.90;;;;;;4956900;28;20250;-77
2023/06/05 02:00:42;;;;;;;3.53;1.00;;;18.20;99.90;;;;;;4956675;28;20287;-76
2023/06/05 02:03:15;;;;;;;3.97;0.80;;;18.20;99.90;;;;;;4956935;28;20197;-77
2023/06/05 02:05:47;;;;;;;6.80;1.02;;;18.20;99.90;;;;;;4956914;28;20201;-76
2023/06/05 02:08:19;;;;;;;1.98;0.70;;;18.30;99.90;;;;;;4956773;28;20197;-76
2023/06/05 02:10:52;;;;;;;4.07;0.70;;;18.30;99.90;;;;;;4956779;28;20204;-76
2023/06/05 02:13:24;;;;;;;3.50;0.90;;;18.20;99.90;;;;;;4956527;28;20641;-77
2023/06/05 02:15:57;;;;;;;5.00;0.70;;;18.20;99.90;;;;;;4956647;28;20200;-77
2023/06/05 02:18:30;;;;;;;4.35;0.70;;;18.20;99.90;;;;;;4956571;28;20232;-77
2023/06/05 02:21:02;;;;;;;2.97;0.70;;;18.10;99.90;;;;;;4956584;28;20276;-77
2023/06/05 02:23:33;;;;;;;4.53;1.00;;;18.10;99.90;;;;;;4956510;28;20280;-77
2023/06/05 02:26:06;;;;;;;4.32;0.70;;;18.10;99.90;;;;;;4956234;28;20200;-77
2023/06/05 02:28:37;;;;;;;4.45;0.75;;;18.10;99.90;;;;;;4956408;28;20231;-77
2023/06/05 02:31:08;;;;;;;2.63;0.65;;;18.20;99.90;;;;;;4956314;28;20193;-76
2023/06/05 02:33:39;;;;;;;3.33;0.60;;;18.20;99.90;;;;;;4955885;28;20277;-77
2023/06/05 02:36:15;;;;;;;6.68;0.70;;;18.20;99.90;;;;;;4956290;28;20691;-76
2023/06/05 02:38:49;;;;;;;3.40;0.80;;;18.20;99.90;;;;;;4956156;28;20255;-76
2023/06/05 02:41:23;;;;;;;5.10;0.90;;;18.20;99.90;;;;;;4956062;28;20244;-77
2023/06/05 02:43:54;;;;;;;4.40;0.77;;;18.20;99.90;;;;;;4956195;28;20189;-77
2023/06/05 02:46:26;;;;;;;6.95;1.10;;;18.20;99.90;;;;;;4956120;28;20193;-77
2023/06/05 02:48:57;;;;;;;4.63;0.70;;;18.20;99.90;;;;;;4956068;28;20644;-77
2023/06/05 02:51:29;;;;;;;8.00;1.00;;;18.20;99.90;;;;;;4956031;28;20200;-78
2023/06/05 02:54:00;;;;;;;5.78;0.80;;;18.20;99.90;;;;;;4955925;28;20284;-77
2023/06/05 02:56:33;;;;;;;3.75;0.82;;;18.20;99.90;;;;;;4955791;28;20189;-78
2023/06/05 02:59:04;;;;;;;5.20;0.70;;;18.20;99.90;;;;;;4955693;28;20220;-77
2023/06/05 03:01:36;;;;;;;5.07;1.00;;;18.10;99.90;;;;;;4955698;28;20272;-77
2023/06/05 03:04:07;;;;;;;2.33;0.70;;;18.10;99.90;;;;;;4955918;28;20264;-77
2023/06/05 03:06:39;;;;;;;3.10;0.63;;;18.10;99.90;;;;;;4955744;28;20189;-77
2023/06/05 03:09:10;;;;;;;3.70;0.80;;;18.10;99.90;;;;;;4955467;28;20208;-75
2023/06/05 03:11:43;;;;;;;5.30;0.85;;;18.10;99.90;;;;;;4955672;28;20193;-75
2023/06/05 03:14:14;;;;;;;4.30;0.80;;;18.20;99.90;;;;;;4955556;28;20189;-76
2023/06/05 03:16:45;;;;;;;5.05;0.80;;;18.30;99.90;;;;;;4956049;28;20280;-77
2023/06/05 03:19:16;;;;;;;3.40;0.88;;;18.30;99.90;;;;;;4955434;28;20216;-77
2023/06/05 03:21:49;;;;;;;4.75;1.05;;;18.40;99.90;;;;;;4955579;28;20196;-77
2023/06/05 03:24:24;;;;;;;3.17;0.80;;;18.40;99.90;;;;;;4955324;28;20201;-78
2023/06/05 03:26:57;;;;;;;5.28;0.90;;;18.40;99.90;;;;;;4955462;28;20196;-76
2023/06/05 03:29:28;;;;;;;4.47;0.93;;;18.40;99.90;;;;;;4955542;28;20189;-77
2023/06/05 03:31:59;;;;;;;4.93;0.98;;;18.40;99.90;;;;;;4955448;28;20560;-77
2023/06/05 03:34:32;;;;;;;3.35;0.70;;;18.40;99.90;;;;;;4955547;28;20284;-76
2023/06/05 03:37:03;;;;;;;3.92;0.90;;;18.50;99.90;;;;;;4955349;28;20197;-77
2023/06/05 03:39:34;;;;;;;4.03;0.80;;;18.50;99.90;;;;;;4955111;28;20224;-77
2023/06/05 03:42:09;;;;;;;5.65;0.80;;;18.50;99.90;;;;;;4955230;28;20197;-77
2023/06/05 03:44:40;;;;;;;3.53;0.60;;;18.40;99.90;;;;;;4954793;28;20243;-76
2023/06/05 03:47:14;;;;;;;4.53;1.00;;;18.40;99.90;;;;;;4954865;28;20200;-77
2023/06/05 03:49:45;;;;;;;3.80;0.73;;;18.40;99.90;;;;;;4955433;28;20192;-76
2023/06/05 03:52:17;;;;;;;2.35;0.60;;;18.40;99.90;;;;;;4955150;28;20201;-77
2023/06/05 03:54:50;;;;;;;3.17;0.70;;;18.40;99.90;;;;;;4955120;28;20197;-78
2023/06/05 03:57:24;;;;;;;3.40;0.70;;;18.50;99.90;;;;;;4956071;28;20377;-77
2023/06/05 03:59:58;;;;;;;5.00;0.70;;;18.60;99.90;;;;;;4954829;28;20603;-76
2023/06/05 04:02:29;;;;;;;3.67;0.65;;;18.80;99.90;;;;;;4955311;28;20592;-76
2023/06/05 04:05:01;;;;;;;3.53;0.68;;;18.90;99.90;;;;;;4954994;28;20244;-78
2023/06/05 04:07:32;;;;;;;5.65;0.80;;;19.00;99.90;;;;;;4953660;28;20209;-77
2023/06/05 04:10:03;;;;;;;3.05;0.47;;;19.10;99.90;;;;;;4953132;28;20223;-76
2023/06/05 04:12:36;;;;;;;4.00;0.70;;;19.20;99.90;;;;;;4953003;28;20560;-76
2023/06/05 04:15:09;;;;;;;2.47;0.50;;;19.10;99.90;;;;;;4950384;28;20580;-76
2023/06/05 04:17:40;;;;;;;2.15;0.57;;;18.80;99.90;;;;;;4961044;28;20208;-76
2023/06/05 04:20:14;;;;;;;2.20;0.60;;;18.80;99.90;;;;;;4966140;28;20224;-75
2023/06/05 04:22:45;;;;;;;4.43;0.60;;;18.80;99.90;;;;;;4957337;28;20203;-77
2023/06/05 04:25:17;;;;;;;6.18;0.98;;;18.80;99.90;;;;;;4954719;28;20205;-75
2023/06/05 04:27:51;;;;;;;3.17;0.60;;;18.60;99.90;;;;;;4968208;28;20208;-74
2023/06/05 04:30:22;;;;;;;7.07;1.13;;;18.50;99.90;;;;;;4952939;28;20676;-77
2023/06/05 04:32:55;;;;;;;4.22;0.77;;;18.00;99.90;;;;;;4953363;28;20561;-76
2023/06/05 04:35:27;;;;;;;3.63;0.70;;;17.70;99.90;;;;;;4954699;28;20572;-75
2023/06/05 04:37:59;;;;;;;2.83;0.73;;;17.60;99.90;;;;;;4963053;28;20660;-76
2023/06/05 04:40:31;;;;;;;4.47;0.93;;;17.30;99.90;;;;;;4956983;28;20224;-75
2023/06/05 04:43:04;;;;;;;2.72;0.95;;;17.10;99.90;;;;;;4968058;28;20204;-77
2023/06/05 04:45:35;;;;;;;2.47;0.60;;;17.00;99.90;;;;;;4958256;28;20561;-77
2023/06/05 04:48:06;;;;;;;4.70;1.13;;;16.90;99.90;;;;;;4962371;28;20193;-77
2023/06/05 04:50:38;;;;;;;3.00;0.80;;;16.90;99.90;;;;;;4955529;28;20296;-77
2023/06/05 04:53:10;;;;;;;2.92;0.60;;;16.70;99.90;;;;;;4952718;28;20196;-76
2023/06/05 04:55:41;;;;;;;4.25;0.80;;;16.50;99.90;;;;;;4943975;28;20587;-77
2023/06/05 04:58:15;;;;;;;2.63;0.68;;;16.40;99.90;;;;;;4959808;28;20200;-76
2023/06/05 05:00:48;;;;;;;4.47;0.82;;;16.30;99.90;;;;;;4954167;28;20251;-77
2023/06/05 05:03:20;;;;;;;4.50;0.70;;;16.10;99.90;;;;;;4955918;28;20205;-77
2023/06/05 05:05:51;;;;;;;3.35;0.60;;;16.10;99.90;;;;;;4955655;28;20280;-76
2023/06/05 05:08:22;;;;;;;1.48;0.50;;;16.10;99.90;;;;;;4962261;28;20236;-78
2023/06/05 05:10:53;;;;;;;3.65;0.60;;;16.10;99.90;;;;;;4953659;28;20209;-77
2023/06/05 05:13:27;;;;;;;2.25;0.45;;;16.10;99.90;;;;;;4964614;28;20196;-77
2023/06/05 05:15:58;;;;;;;2.75;0.60;;;16.10;99.90;;;;;;4959039;28;20200;-78
2023/06/05 05:18:29;;;;;;;3.00;0.60;;;16.20;99.90;;;;;;4948644;29;20201;-77
2023/06/05 05:21:02;;;;;;;2.40;0.60;;;16.20;99.90;;;;;;4954011;28;20770;-76
2023/06/05 05:23:33;;;;;;;3.28;0.60;;;16.20;99.90;;;;;;4964289;28;20212;-77
2023/06/05 05:26:04;;;;;;;3.50;0.65;;;16.30;99.90;;;;;;4955598;28;20193;-77
2023/06/05 05:28:38;;;;;;;3.00;0.70;;;16.30;99.90;;;;;;4957411;28;20236;-77
2023/06/05 05:31:09;;;;;;;2.80;0.70;;;16.40;99.90;;;;;;4955070;28;20205;-77
2023/06/05 05:33:44;;;;;;;2.03;0.70;;;16.40;99.90;;;;;;4956893;28;20300;-76
2023/06/05 05:36:15;;;;;;;3.83;0.70;;;16.40;99.90;;;;;;4956240;28;20201;-76
2023/06/05 05:38:46;;;;;;;2.60;0.60;;;16.40;99.90;;;;;;4956343;28;20197;-76
2023/06/05 05:41:17;;;;;;;2.20;0.65;;;16.50;99.90;;;;;;4956333;28;20216;-78
2023/06/05 05:43:51;;;;;;;2.55;0.80;;;16.50;99.90;;;;;;4956904;28;20288;-77
2023/06/05 05:46:22;;;;;;;1.20;0.50;;;16.50;99.90;;;;;;4952825;28;20204;-76
2023/06/05 05:48:54;;;;;;;2.95;0.60;;;16.40;99.90;;;;;;4954577;28;20193;-76
2023/06/05 05:51:26;;;;;;;2.13;0.50;;;16.50;99.90;;;;;;4957076;28;20248;-79
2023/06/05 05:53:57;;;;;;;2.78;0.60;;;16.50;99.90;;;;;;4955246;28;20665;-76
2023/06/05 05:56:28;;;;;;;4.78;0.80;;;16.50;99.90;;;;;;4955907;28;20207;-76
2023/06/05 05:59:01;;;;;;;2.95;0.57;;;16.50;99.90;;;;;;4956860;28;20656;-78
2023/06/05 06:01:33;;;;;;;0.90;0.50;;;16.60;99.90;;;;;;4956528;28;20245;-77
2023/06/05 06:04:04;;;;;;;0.90;0.20;;;16.50;99.90;;;;;;4952501;28;20253;-77
2023/06/05 06:06:37;;;;;;;3.22;0.60;;;16.40;99.90;;;;;;4954274;28;20209;-77
2023/06/05 06:09:09;;;;;;;1.10;0.30;;;16.40;99.90;;;;;;4953996;28;20205;-76
2023/06/05 06:11:41;;;;;;;2.33;0.47;;;16.30;99.90;;;;;;4956929;28;20598;-76
2023/06/05 06:14:14;;;;;;;2.75;0.40;;;16.30;99.90;;;;;;4954992;28;20197;-76
2023/06/05 06:16:45;;;;;;;2.17;0.50;;;16.30;99.90;;;;;;4967448;28;20218;-76
2023/06/05 06:19:16;;;;;;;0.82;0.40;;;16.20;99.90;;;;;;4955779;28;20204;-75
2023/06/05 06:21:47;;;;;;;2.15;0.50;;;16.20;99.90;;;;;;4961334;28;20200;-75
2023/06/05 06:24:19;;;;;;;2.25;0.50;;;16.20;99.90;;;;;;4967653;28;20204;-76
2023/06/05 06:26:51;;;;;;;0.93;0.50;;;16.20;99.90;;;;;;4963920;28;20211;-77
2023/06/05 06:29:27;;;;;;;2.75;0.70;;;16.10;99.90;;;;;;4957794;28;20645;-79
2023/06/05 06:31:58;;;;;;;2.63;0.50;;;16.10;99.90;;;;;;4955265;28;20293;-78
2023/06/05 06:34:30;;;;;;;2.97;0.75;;;16.00;99.90;;;;;;4957191;28;20248;-77
2023/06/05 06:37:01;;;;;;;0.85;0.40;;;16.00;99.90;;;;;;4955441;28;20295;-79
2023/06/05 06:39:32;;;;;;;1.77;0.50;;;16.00;99.90;;;;;;4956042;28;20193;-77
2023/06/05 06:42:03;;;;;;;2.60;0.40;;;16.00;99.90;;;;;;4956339;28;20198;-79
2023/06/05 06:44:36;;;;;;;4.93;0.50;;;16.00;99.90;;;;;;4956229;28;20197;-77
2023/06/05 06:47:08;;;;;;;3.75;0.60;;;16.00;99.90;;;;;;4954055;28;20694;-77
2023/06/05 06:49:39;;;;;;;1.92;0.40;;;15.90;99.90;;;;;;4954978;28;20205;-76
2023/06/05 06:52:12;;;;;;;2.58;0.73;;;16.00;99.90;;;;;;4947208;29;20196;-76
2023/06/05 06:54:43;;;;;;;3.92;1.20;;;16.00;99.90;;;;;;4952207;28;20219;-76
2023/06/05 06:57:14;;;;;;;4.15;0.90;;;16.00;99.90;;;;;;4954486;28;20212;-77
2023/06/05 06:59:47;;;;;;;2.35;0.80;;;15.90;99.90;;;;;;4952358;28;20232;-76
2023/06/05 07:02:21;;;;;;;2.95;1.00;;;15.90;99.90;;;;;;4950141;28;20201;-76
2023/06/05 07:04:53;;;;;;;1.80;0.80;;;15.90;99.90;;;;;;4950782;28;20193;-76
2023/06/05 07:07:25;;;;;;;4.15;0.80;;;15.90;99.90;;;;;;4956186;28;20678;-77
2023/06/05 07:09:57;;;;;;;3.85;1.10;;;15.90;99.90;;;;;;4954016;28;20212;-77
2023/06/05 07:12:28;;;;;;;1.40;0.80;;;15.80;99.90;;;;;;4956420;28;20328;-77
2023/06/05 07:15:02;;;;;;;3.30;0.82;;;15.80;99.90;;;;;;4954397;28;20205;-79
2023/06/05 07:17:34;;;;;;;2.00;0.50;;;15.80;99.90;;;;;;4953513;28;20260;-75
2023/06/05 07:20:05;;;;;;;3.70;0.70;;;15.70;99.90;;;;;;4949623;28;20213;-78
2023/06/05 07:22:36;;;;;;;3.10;0.60;;;15.70;99.90;;;;;;4949073;28;20237;-74
2023/06/05 07:25:09;;;;;;;4.97;0.68;;;15.70;99.90;;;;;;4951914;28;20561;-76
2023/06/05 07:27:40;;;;;;;1.75;0.50;;;15.70;99.90;;;;;;4950927;28;20663;-75
2023/06/05 07:30:14;;;;;;;3.53;0.88;;;15.70;99.90;;;;;;4954235;28;20215;-75
2023/06/05 07:32:46;;;;;;;2.40;1.02;;;15.70;99.90;;;;;;4948578;28;20196;-78
2023/06/05 07:35:17;;;;;;;1.48;0.90;;;15.70;99.90;;;;;;4953897;28;20320;-76
2023/06/05 07:37:48;;;;;;;3.08;1.13;;;15.70;99.90;;;;;;4955791;28;20955;-76
2023/06/05 07:40:19;;;;;;;2.88;1.50;;;15.70;99.90;;;;;;4954599;28;20238;-76
2023/06/05 07:42:50;;;;;;;5.97;2.28;;;15.70;99.90;;;;;;4953496;28;20219;-75
2023/06/05 07:45:23;;;;;;;5.75;2.55;;;15.70;99.90;;;;;;4954019;28;20212;-76
2023/06/05 07:47:55;;;;;;;4.95;3.00;;;15.70;99.90;;;;;;4948170;28;20205;-77
2023/06/05 07:50:28;;;;;;;4.93;2.17;;;15.70;99.90;;;;;;4946562;28;20201;-78
2023/06/05 07:52:59;;;;;;;3.50;1.60;;;15.70;99.90;;;;;;4953115;28;20197;-77
2023/06/05 07:55:30;;;;;;;4.00;1.20;;;15.70;99.90;;;;;;4954986;28;20205;-78
2023/06/05 07:58:01;;;;;;;4.03;0.80;;;15.70;99.90;;;;;;4974752;23;20241;-87
2023/06/05 08:00:37;;;;;;;3.80;1.00;;;15.70;99.90;;;;;;4981671;28;20228;-86
2023/06/05 08:03:08;;;;;;;3.08;1.10;;;15.70;99.90;;;;;;4979104;28;20199;-86
2023/06/05 08:05:42;;;;;;;3.17;1.00;;;15.80;99.90;;;;;;4977787;28;20662;-86
2023/06/05 08:08:13;;;;;;;3.35;1.08;;;15.80;99.90;;;;;;4972132;28;20232;-88
2023/06/05 08:10:44;;;;;;;4.90;1.30;;;15.70;99.90;;;;;;4973737;28;20211;-85
2023/06/05 08:13:16;;;;;;;5.72;1.40;;;15.70;99.90;;;;;;4978104;28;20200;-88
2023/06/05 08:15:49;;;;;;;4.35;1.10;;;15.80;99.90;;;;;;4963498;28;20200;-89
2023/06/05 08:18:21;;;;;;;3.38;1.20;;;15.80;99.90;;;;;;4974152;28;20211;-87
2023/06/05 08:20:52;;;;;;;2.03;0.80;;;15.80;99.90;;;;;;4974128;28;20252;-88
2023/06/05 08:23:26;;;;;;;2.20;0.70;;;15.70;99.90;;;;;;4982143;28;20207;-87
2023/06/05 08:26:00;;;;;;;2.50;0.68;;;15.70;99.90;;;;;;4982656;28;20251;-88
2023/06/05 08:28:31;;;;;;;2.72;0.70;;;15.80;99.90;;;;;;4985830;28;20203;-88
2023/06/05 08:31:05;;;;;;;2.83;1.05;;;15.80;99.90;;;;;;4974085;28;20204;-88
2023/06/05 08:33:36;;;;;;;3.25;0.82;;;15.80;99.90;;;;;;4979298;28;20204;-85
2023/06/05 08:36:08;;;;;;;1.77;1.30;;;15.80;99.90;;;;;;4966274;28;20197;-87
2023/06/05 08:38:39;;;;;;;5.05;2.28;;;15.80;99.90;;;;;;4978302;28;20195;-86
2023/06/05 08:41:11;;;;;;;4.43;2.03;;;15.80;99.90;;;;;;4983205;28;20222;-86
2023/06/05 08:43:44;;;;;;;4.13;1.98;;;15.80;99.90;;;;;;4987362;28;20196;-85
2023/06/05 08:46:17;;;;;;;4.22;2.00;;;15.80;99.90;;;;;;4977982;28;20196;-85
2023/06/05 08:48:50;;;;;;;2.80;1.70;;;15.80;99.90;;;;;;4976262;28;20192;-86
2023/06/05 08:51:22;;;;;;;2.72;1.30;;;15.80;99.90;;;;;;4976116;28;20208;-84
2023/06/05 08:53:57;;;;;;;4.00;1.42;;;15.80;99.90;;;;;;4982707;28;20569;-86
2023/06/05 08:56:31;;;;;;;3.03;1.20;;;15.80;99.90;;;;;;4976356;28;20251;-87
2023/06/05 08:59:02;;;;;;;5.38;1.20;;;15.80;99.90;;;;;;4977151;28;20215;-86
2023/06/05 09:01:37;;;;;;;2.72;0.80;;;15.70;99.90;;;;;;4975089;28;20586;-87
2023/06/05 09:04:08;;;;;;;3.50;1.00;;;15.70;99.90;;;;;;4976316;28;20202;-85
2023/06/05 09:06:39;;;;;;;4.60;1.00;;;15.70;99.90;;;;;;4976722;28;20227;-86
2023/06/05 09:09:12;;;;;;;3.58;1.13;;;15.70;99.90;;;;;;4974028;28;20284;-85
2023/06/05 09:11:43;;;;;;;3.30;1.25;;;15.70;99.90;;;;;;4974834;28;20207;-84
2023/06/05 09:14:14;;;;;;;3.10;1.20;;;15.70;99.90;;;;;;4974147;28;20216;-84
2023/06/05 09:16:47;;;;;;;3.42;1.05;;;15.80;99.90;;;;;;4976974;28;20197;-83
2023/06/05 09:19:24;;;;;;;2.50;0.90;;;15.70;99.90;;;;;;4970730;28;20744;-85
2023/06/05 09:21:57;;;;;;;1.95;1.10;;;15.80;99.90;;;;;;4970296;28;20239;-87
2023/06/05 09:24:29;;;;;;;1.50;1.20;;;15.70;99.90;;;;;;4962122;28;20675;-86
2023/06/05 09:27:01;;;;;;;2.58;1.00;;;15.70;99.90;;;;;;4966458;28;20653;-84
2023/06/05 09:29:34;;;;;;;2.80;1.10;;;15.70;99.90;;;;;;4976442;28;20205;-85
2023/06/05 09:32:08;;;;;;;5.10;1.23;;;15.70;99.90;;;;;;4973570;28;20204;-81
2023/06/05 09:34:39;;;;;;;1.55;1.00;;;15.70;99.90;;;;;;4976705;28;20651;-85
2023/06/05 09:37:11;;;;;;;2.17;1.00;;;15.70;99.90;;;;;;4976520;28;20203;-86
2023/06/05 09:39:44;;;;;;;2.13;0.90;;;15.70;99.90;;;;;;4975148;28;20220;-85
2023/06/05 09:42:15;;;;;;;3.50;0.85;;;15.80;99.90;;;;;;4970647;28;20274;-85
2023/06/05 09:45:02;;;;;;;2.67;0.73;;;15.70;99.90;;;;;;4970379;28;20211;-87
2023/06/05 09:47:36;;;;;;;2.55;0.90;;;15.80;99.90;;;;;;4970943;28;20204;-86
2023/06/05 09:50:07;;;;;;;2.55;0.82;;;15.80;99.90;;;;;;4974283;28;20226;-86
2023/06/05 09:52:41;;;;;;;2.47;0.80;;;15.80;99.90;;;;;;4976334;28;20286;-85
2023/06/05 09:55:12;;;;;;;1.25;0.70;;;15.80;99.90;;;;;;4970952;28;20666;-86
2023/06/05 09:57:44;;;;;;;3.28;1.00;;;15.80;99.90;;;;;;4974935;28;20248;-85
2023/06/05 10:00:17;;;;;;;1.52;0.80;;;15.80;99.90;;;;;;4975026;28;20204;-86
2023/06/05 10:02:52;;;;;;;3.75;1.10;;;15.80;99.90;;;;;;4972717;28;20655;-84
2023/06/05 10:05:25;;;;;;;2.70;1.23;;;15.80;99.90;;;;;;4967298;28;20202;-85
2023/06/05 10:07:58;;;;;;;3.25;1.23;;;15.80;99.90;;;;;;4973266;28;20208;-84
2023/06/05 10:10:30;;;;;;;2.15;1.00;;;15.80;99.90;;;;;;4963347;28;20208;-84
2023/06/05 10:13:03;;;;;;;2.92;1.15;;;15.80;99.90;;;;;;4974821;28;20219;-85
2023/06/05 10:15:37;;;;;;;1.90;1.25;;;15.70;99.90;;;;;;4973144;28;20283;-83
2023/06/05 10:18:11;;;;;;;1.50;0.82;;;15.80;99.90;;;;;;4958244;28;20600;-84
2023/06/05 10:20:42;;;;;;;2.58;0.93;;;15.80;99.90;;;;;;4972210;28;20202;-85
2023/06/05 10:23:13;;;;;;;1.48;0.90;;;15.70;99.90;;;;;;4972833;28;20652;-84
2023/06/05 10:25:46;;;;;;;2.55;0.95;;;15.80;99.90;;;;;;4973036;28;20207;-84
2023/06/05 10:28:38;;;;;;;2.28;0.85;;;15.80;99.90;;;;;;4974614;28;20203;-85
2023/06/05 10:31:26;;;;;;;1.60;0.90;;;15.80;99.90;;;;;;4974297;28;20204;-86
2023/06/05 10:34:08;;;;;;;1.63;0.98;;;15.80;99.90;;;;;;4970757;28;20206;-82
2023/06/05 10:37:05;;;;;;;2.50;1.02;;;15.80;99.90;;;;;;4976297;28;20196;-83
2023/06/05 10:39:40;;;;;;;3.35;1.25;;;15.80;99.90;;;;;;4975314;28;20206;-84
2023/06/05 10:42:24;;;;;;;1.67;0.90;;;15.80;99.90;;;;;;4975532;28;20624;-83
2023/06/05 10:44:56;;;;;;;3.28;1.02;;;15.80;99.90;;;;;;4975742;28;20193;-84
2023/06/05 10:47:54;;;;;;;2.30;0.95;;;15.80;99.90;;;;;;4975339;28;20576;-81
2023/06/05 10:50:33;;;;;;;2.38;1.00;;;15.80;99.90;;;;;;4974833;28;20554;-83
2023/06/05 10:53:04;;;;;;;3.88;1.10;;;15.80;99.90;;;;;;4975279;28;20278;-85
2023/06/05 10:55:46;;;;;;;1.95;1.10;;;15.80;99.90;;;;;;4975386;28;20192;-85
2023/06/05 10:58:17;;;;;;;1.70;0.90;;;15.80;99.90;;;;;;4975243;28;20240;-84
2023/06/05 11:01:29;;;;;;;2.83;0.98;;;15.80;99.90;;;;;;4975299;28;20200;-82
2023/06/05 11:04:03;;;;;;;2.03;1.20;;;15.80;99.90;;;;;;4974196;28;20592;-85
2023/06/05 11:06:37;;;;;;;2.78;0.98;;;15.80;99.90;;;;;;4975322;28;20198;-81
2023/06/05 11:09:13;;;;;;;2.40;1.15;;;15.80;99.90;;;;;;4974744;28;20215;-84
2023/06/05 11:12:04;;;;;;;1.67;1.00;;;15.80;99.90;;;;;;4975134;28;20223;-83
2023/06/05 11:14:51;;;;;;;2.58;1.00;;;15.80;99.90;;;;;;4975412;28;20219;-84
2023/06/05 11:17:32;;;;;;;3.38;1.35;;;15.80;99.90;;;;;;4974990;28;20223;-81
2023/06/05 11:20:09;;;;;;;2.42;1.30;;;15.80;99.90;;;;;;4975053;28;20192;-85
2023/06/05 11:23:17;;;;;;;3.55;1.50;;;15.70;99.90;;;;;;4974605;28;20219;-84
2023/06/05 11:25:51;;;;;;;3.38;1.33;;;15.70;99.90;;;;;;4964059;28;20204;-85
2023/06/05 11:28:44;;;;;;;2.45;1.58;;;15.70;99.90;;;;;;4974843;28;20589;-82
2023/06/05 11:31:30;;;;;;;4.82;2.00;;;15.70;99.90;;;;;;4974836;28;20196;-84
2023/06/05 11:34:02;;;;;;;3.28;1.70;;;15.80;99.90;;;;;;4974879;28;20192;-86
2023/06/05 11:36:33;;;;;;;3.97;1.73;;;15.70;99.90;;;;;;4974800;28;20203;-82
2023/06/05 11:39:04;;;;;;;3.67;1.60;;;15.70;99.90;;;;;;4974710;28;20215;-82
2023/06/05 11:41:37;;;;;;;3.95;1.63;;;15.70;99.90;;;;;;4973305;28;20227;-85
2023/06/05 11:44:08;;;;;;;2.75;1.33;;;15.70;99.90;;;;;;4955542;28;20193;-85
2023/06/05 11:46:43;;;;;;;6.68;1.73;;;15.70;99.90;;;;;;4955516;28;20570;-85
2023/06/05 11:49:27;;;;;;;3.35;1.52;;;15.70;99.90;;;;;;4955411;28;20534;-85
2023/06/05 11:52:00;;;;;;;3.95;1.50;;;15.60;99.90;;;;;;4955413;28;20197;-82
2023/06/05 11:54:45;;;;;;;3.28;1.63;;;15.60;99.90;;;;;;4955393;28;20243;-85
2023/06/05 11:57:18;;;;;;;3.97;1.60;;;15.70;99.90;;;;;;4974024;28;20328;-85
2023/06/05 11:59:50;;;;;;;3.50;1.73;;;15.70;99.90;;;;;;4970508;28;20204;-82
2023/06/05 12:02:25;;;;;;;3.28;1.80;;;15.70;99.90;;;;;;4973424;28;20227;-85
2023/06/05 12:04:56;;;;;;;4.88;2.00;;;15.70;99.90;;;;;;4973580;28;20200;-85
2023/06/05 12:07:36;;;;;;;4.68;1.73;;;15.70;99.90;;;;;;4976631;28;20235;-85
2023/06/05 12:10:09;;;;;;;3.63;1.80;;;15.70;99.90;;;;;;4977084;28;20204;-85
2023/06/05 12:12:53;;;;;;;3.47;1.67;;;15.70;99.90;;;;;;4978386;28;20624;-83
2023/06/05 12:15:26;;;;;;;2.95;2.00;;;15.70;99.90;;;;;;4976381;28;20207;-83
2023/06/05 12:17:59;;;;;;;2.75;1.80;;;15.60;99.90;;;;;;4976748;28;20202;-83
2023/06/05 12:20:42;;;;;;;6.65;1.83;;;15.70;99.90;;;;;;4976310;28;20202;-84
2023/06/05 12:23:22;;;;;;;2.53;1.60;;;15.60;99.90;;;;;;4977602;28;20231;-84
2023/06/05 12:26:03;;;;;;;4.78;1.73;;;15.60;99.90;;;;;;4977225;28;20200;-85
2023/06/05 12:28:36;;;;;;;2.50;1.50;;;15.70;99.90;;;;;;4975029;28;20196;-85
2023/06/05 12:31:07;;;;;;;3.10;1.90;;;15.70;99.90;;;;;;4974703;28;20200;-85
2023/06/05 12:33:50;;;;;;;3.13;1.75;;;15.60;99.90;;;;;;4974824;28;20237;-85
2023/06/05 12:36:21;;;;;;;3.42;1.60;;;15.70;99.90;;;;;;4977207;28;20219;-86
2023/06/05 12:38:52;;;;;;;4.43;1.80;;;15.70;99.90;;;;;;4974728;28;20612;-84
2023/06/05 12:41:23;;;;;;;2.92;1.50;;;15.70;99.90;;;;;;4972865;28;20203;-81
2023/06/05 12:44:06;;;;;;;3.67;1.67;;;15.70;99.90;;;;;;4975737;28;20206;-84
2023/06/05 12:46:37;;;;;;;4.45;1.98;;;15.70;99.90;;;;;;4974514;28;20211;-81
2023/06/05 12:49:09;;;;;;;2.72;1.52;;;15.60;99.90;;;;;;4977660;28;20193;-82
2023/06/05 12:51:40;;;;;;;3.15;1.65;;;15.70;99.90;;;;;;4971623;28;20706;-81
2023/06/05 12:54:11;;;;;;;4.82;1.80;;;15.60;99.90;;;;;;4977721;28;20196;-80
2023/06/05 12:56:45;;;;;;;3.78;1.80;;;15.60;99.90;;;;;;4977372;28;20236;-84
2023/06/05 12:59:18;;;;;;;3.65;1.67;;;15.70;99.90;;;;;;4977582;28;20205;-86
2023/06/05 13:01:49;;;;;;;3.30;1.40;;;15.60;99.90;;;;;;4977398;28;20231;-83
2023/06/05 13:04:20;;;;;;;2.45;1.38;;;15.60;99.90;;;;;;4977007;28;20207;-82
2023/06/05 13:06:52;;;;;;;3.28;1.33;;;15.60;99.90;;;;;;4971619;28;20209;-80
2023/06/05 13:09:23;;;;;;;2.85;1.30;;;15.60;99.90;;;;;;4958653;28;20663;-82
2023/06/05 13:11:54;;;;;;;3.33;1.58;;;15.60;99.90;;;;;;4958021;28;20197;-85
2023/06/05 13:14:27;;;;;;;4.45;1.40;;;15.60;99.90;;;;;;4958034;28;20197;-80
2023/06/05 13:16:58;;;;;;;3.88;1.60;;;15.50;99.90;;;;;;4970840;28;20207;-84
2023/06/05 13:19:29;;;;;;;3.03;1.40;;;15.50;99.90;;;;;;4977062;28;20192;-84